Pagrindinis puslapis
METAR-TAF:

METAR-TAF

Oro uostai :

Utti, Suomija

platuma: 60-54N, ilguma: 026-56E, Aukštis: 100 m

Dabartinis oras

Ataskaita buvo paskelbta 27 minutes, ne 19:50 UTC
Vėjas 14 kt iš Pietvakarių
Temperatūra 4°C
Drėgmė 87%
Slėgis 991 hPa
Matomumas 10 km arba daugiau
Su prošvaistėmis ne aukštis 3900 ft

METAR: EFUT 051950Z AUTO 23014KT 9999 BKN039 04/02 Q0991

Laikas: 22:17 (20:17 UTC)

Prognozė

Ataskaita buvo paskelbta 7 valandos ir 9 minutes, ne 13:08 UTC
Prognozė galioja nuo 05 metu 13 UTC su 05 metu 14 UTC
Vėjas 10 kt iš Vakarų/Pietvakarių
Matomumas: 4000 m
Apsiniaukę ne aukštis 400 ft
dulksna
Laikinai
nuo 05 metu 13 UTC su 05 metu 14 UTC
Vėjas 15 kt iš Vakarų/Pietvakarių su gūsio iki 25 kt
Matomumas 10 km arba daugiau
Su prošvaistėmis ne aukštis 1000 ft

TAF: EFUT 051308Z 0513/0514 24010KT 4000 -DZ OVC004 TEMPO 0513/0514 25015G25KT 9999 NSW BKN010

Orai ataskaitas ir orų prognozės (METAR, TAF).

turimą stotys yra geltonos ir raudonos taškus žemėlapyje.

Perkelti pele per norėdami pamatyti stoties vardą.

Tada spustelėkite, norėdami matyti oro stebėjimo ir prognozės.

Norėdami pakeisti žemėlapį: spustelėkite ant žalios mygtukų su juodo kryžiaus žemyn,; žalią mygtuką su brūkšneliu, jei norite nutolinti; arba žalių rodyklių gretimoms žemėlapius.


METAR-TAF: